Terminal Aerodrome Forecast
Issued by NWS Charleston, WV

Current Version | Previous Version | Graphics & Text | Print | Product List | Glossary On
Versions: 1 2 3 4 5 6 7 8 9 10 11 12 13 14 15 16 17 18 19 20 21 22 23
762
FTUS41 KRLX 241739
TAFPKB
TAF
KPKB 241739Z 2418/2518 01004KT P6SM BKN035
     FM242000 36005KT P6SM SCT040
     FM250300 04002KT P6SM FEW250
     FM250800 00000KT 4SM BR FEW250
     FM250900 00000KT 1SM BR BKN001
     FM251100 00000KT 1/4SM FG VV001
     FM251300 00000KT P6SM FEW250
     FM251400 07004KT P6SM FEW250=

USA.gov is the U.S. government's official web portal to all federal, state and local government web resources and services.